Latest Weather Observations for Yamba

IDN60801

Issued at 7:02 pm EDT Sunday 22 January 2017 (issued every 30 minutes, with the page automatically refreshed every 10 minutes)

About weather observations | Map of weather stations | Latest weather observations for NSW | Other Formats
Station Details ID: 058012 Name: YAMBA PILOT STATION Lat: -29.43 Lon: 153.36 Height: 27.4 m
Data from the previous 72 hours. | See also: Recent months at Yamba
Date/Time
EDT
Temp
°C
App
Temp
°C
Dew
Point
°C
Rel
Hum
%
Delta-T
°C
Wind Press
QNH
hPa
Press
MSL
hPa
Rain since
9am
mm
Dir  Spd
km/h
Gust
km/h
Spd
kts
Gust
kts
22/07:00pm 24.0 24.0 17.3 66 4.2 E 13 13 7 7 1015.9 1015.7 -
22/06:30pm 24.4 24.1 17.4 65 4.4 E 15 20 8 11 1015.6 1015.4 0.0
22/06:00pm 24.8 25.1 17.8 65 4.4 E 13 20 7 11 1015.4 1015.2 0.0
22/05:30pm 24.9 24.7 17.6 64 4.6 ESE 15 20 8 11 1015.6 1015.4 0.0
22/05:00pm 25.5 25.3 17.7 62 4.9 ESE 15 20 8 11 1015.7 1015.5 0.0
22/04:30pm 25.7 26.1 18.1 63 4.8 E 13 19 7 10 1015.9 1015.7 0.0
22/04:00pm 25.4 25.2 17.6 62 4.9 E 15 20 8 11 1016.0 1015.8 0.0
22/03:30pm 25.9 26.2 17.8 61 5.1 E 13 20 7 11 1016.0 1015.8 0.0
22/03:00pm 25.9 25.6 18.3 63 4.8 ESE 17 20 9 11 1016.2 1016.0 0.0
22/02:30pm 25.8 25.8 17.2 59 5.4 ESE 13 20 7 11 1016.5 1016.3 0.0
22/02:00pm 26.3 26.7 18.9 63 4.7 ESE 15 20 8 11 1016.7 1016.5 0.0
22/01:30pm 26.0 26.7 19.6 68 4.1 SE 15 19 8 10 1017.0 1016.8 0.0
22/01:00pm 25.2 25.3 19.1 69 3.9 SE 17 26 9 14 1017.2 1017.0 0.0
22/12:30pm 24.3 24.5 19.4 74 3.1 SE 17 22 9 12 1017.4 1017.2 0.0
22/12:00pm 24.7 25.6 19.3 72 3.5 SE 13 24 7 13 1017.5 1017.3 0.0
22/11:30am 24.9 25.4 19.3 71 3.6 SSE 15 20 8 11 1017.6 1017.4 0.0
22/11:00am 23.7 23.2 19.0 75 3.0 SSE 20 28 11 15 1017.7 1017.5 0.0
22/10:30am 25.2 25.0 18.6 67 4.2 SE 17 24 9 13 1017.4 1017.2 0.0
22/10:00am 24.9 24.6 19.1 70 3.7 SE 19 24 10 13 1017.4 1017.2 0.0
22/09:30am 24.8 26.0 19.8 74 3.2 S 13 20 7 11 1017.4 1017.2 0.0
22/09:00am 23.9 24.4 18.3 71 3.5 SSE 13 20 7 11 1017.2 1017.0 2.2
22/08:30am 24.5 24.6 18.4 69 3.9 SSE 15 22 8 12 1016.9 1016.7 2.2
22/08:00am 23.5 24.0 18.4 73 3.2 SSE 13 19 7 10 1016.6 1016.4 2.2
22/07:30am 23.2 24.1 18.3 74 3.1 SSE 11 15 6 8 1016.3 1016.1 2.2
22/07:00am 22.7 23.9 18.3 76 2.8 S 9 15 5 8 1015.9 1015.7 2.2
22/06:30am 23.0 22.4 17.5 71 3.4 SE 17 24 9 13 1015.4 1015.2 2.2
22/06:00am 22.7 21.6 17.8 74 3.0 SE 20 26 11 14 1014.9 1014.7 2.2
22/05:30am 23.0 20.4 17.7 72 3.3 SE 28 37 15 20 1014.4 1014.2 2.2
22/05:00am 23.0 21.4 18.3 75 3.0 SE 24 33 13 18 1014.2 1014.0 2.2
22/04:30am 23.1 21.1 18.4 75 3.0 SE 26 35 14 19 1014.0 1013.8 2.2
22/04:00am 23.1 21.8 18.2 74 3.1 SE 22 30 12 16 1014.0 1013.8 2.2
22/03:30am 23.1 21.5 18.4 75 3.0 SE 24 32 13 17 1014.1 1013.9 2.2
22/03:00am 23.3 21.6 18.2 73 3.2 SE 24 33 13 18 1014.2 1014.0 2.2
22/02:30am 23.1 22.8 19.1 78 2.5 SE 19 28 10 15 1014.2 1014.0 2.2
22/02:00am 23.3 22.1 18.4 74 3.1 SE 22 30 12 16 1014.3 1014.1 2.2
22/01:30am 23.2 22.5 18.7 76 2.8 SE 20 26 11 14 1014.4 1014.2 2.2
22/01:00am 23.1 21.9 19.3 79 2.4 SE 24 32 13 17 1014.8 1014.6 2.2
22/12:30am 23.2 22.9 19.6 80 2.3 SE 20 28 11 15 1015.0 1014.8 2.2
22/12:00am 23.3 22.9 20.1 82 2.1 SE 22 28 12 15 1015.1 1014.9 2.0
 
Date/Time
EDT
Temp
°C
App
Temp
°C
Dew
Point
°C
Rel
Hum
%
Delta-T
°C
Wind Press
QNH
hPa
Press
MSL
hPa
Rain since
9am
mm
Dir  Spd
km/h
Gust
km/h
Spd
kts
Gust
kts
21/11:30pm 23.5 23.4 20.0 81 2.3 SE 20 28 11 15 1015.1 1014.9 2.0
21/11:00pm 23.4 22.7 20.3 83 2.0 SE 24 30 13 16 1015.0 1014.8 2.0
21/10:30pm 23.6 23.1 19.9 80 2.4 SE 22 32 12 17 1014.9 1014.7 2.0
21/10:00pm 23.5 23.7 20.2 82 2.1 SE 19 28 10 15 1014.7 1014.5 2.0
21/09:30pm 23.3 22.7 20.6 85 1.8 SE 24 32 13 17 1014.3 1014.1 2.0
21/09:00pm 22.8 21.6 20.9 89 1.2 SE 28 39 15 21 1013.9 1013.7 1.8
21/08:30pm 22.4 24.0 22.1 98 0.2 SE 17 30 9 16 1013.6 1013.4 1.8
21/08:00pm 22.6 23.7 22.3 98 0.2 SE 20 26 11 14 1013.0 1012.8 1.8
21/07:30pm 22.8 25.7 22.5 98 0.2 SE 11 15 6 8 1012.7 1012.5 1.6
21/07:00pm 22.3 22.5 22.0 98 0.2 SE 24 32 13 17 1011.9 1011.8 1.6
21/06:30pm 22.9 23.1 21.4 91 1.0 SE 22 39 12 21 1011.4 1011.3 1.6
21/06:00pm 22.7 22.9 22.0 96 0.5 SE 24 32 13 17 1010.7 1010.6 1.6
21/05:30pm 22.7 23.2 22.0 96 0.5 SE 22 28 12 15 1010.5 1010.4 1.4
21/05:00pm 22.0 22.0 21.7 98 0.2 SSE 24 32 13 17 1010.4 1010.3 1.4
21/04:30pm 22.3 22.5 22.0 98 0.2 SE 24 33 13 18 1010.2 1010.1 1.4
21/04:00pm 22.5 23.7 22.2 98 0.2 SE 19 24 10 13 1010.0 1009.9 1.4
21/03:30pm 22.9 24.2 22.6 98 0.2 SSE 20 28 11 15 1010.0 1009.9 1.4
21/03:00pm 23.1 24.1 21.0 88 1.4 SSE 17 22 9 12 1009.8 1009.7 1.2
21/02:30pm 23.7 23.6 20.0 80 2.4 SSE 20 30 11 16 1009.6 1009.5 1.2
21/02:00pm 24.3 22.7 19.1 73 3.3 SSE 26 37 14 20 1009.4 1009.3 1.2
21/01:30pm 24.1 22.7 18.7 72 3.4 SSE 24 41 13 22 1009.3 1009.2 1.2
21/01:00pm 24.1 21.7 19.0 73 3.3 SSE 30 44 16 24 1009.1 1009.0 1.2
21/12:30pm 24.3 22.7 19.1 73 3.3 SSE 26 43 14 23 1009.0 1008.9 1.2
21/12:00pm 24.3 22.9 19.6 75 3.0 SSE 26 37 14 20 1008.9 1008.8 1.0
21/11:30am 24.2 22.9 19.1 73 3.3 SSE 24 37 13 20 1008.9 1008.8 0.8
21/11:00am 24.1 23.2 19.8 77 2.8 SSE 24 41 13 22 1008.6 1008.5 0.8
21/10:30am 23.7 22.9 20.0 80 2.4 SSE 24 41 13 22 1008.2 1008.1 0.6
21/10:00am 23.3 22.0 19.9 81 2.2 SSE 26 43 14 23 1008.0 1007.9 0.4
21/09:30am 23.8 22.4 20.5 82 2.1 SSE 28 41 15 22 1007.7 1007.6 0.2
21/09:00am 23.5 22.5 21.2 87 1.5 SSE 28 39 15 21 1007.1 1007.0 21.8
21/08:30am 22.8 22.7 22.3 97 0.3 SSE 26 39 14 21 1006.8 1006.7 21.6
21/08:00am 22.7 21.9 22.4 98 0.2 SSE 30 44 16 24 1006.6 1006.5 21.4
21/07:30am 22.8 22.5 22.6 99 0.1 SSE 28 39 15 21 1006.1 1006.0 21.0
21/07:00am 22.9 23.1 22.7 99 0.1 SSE 26 39 14 21 1005.4 1005.3 20.8
21/06:30am 23.3 24.1 23.1 99 0.1 SSE 24 52 13 28 1005.3 1005.2 20.4
21/06:28am 23.4 24.6 23.2 99 0.1 SSE 22 52 12 28 1005.2 1005.1 20.4
21/06:27am 23.6 25.3 23.4 99 0.1 SSE 20 52 11 28 1005.1 1005.0 20.4
21/06:00am 24.3 28.5 24.1 99 0.1 NNW 9 13 5 7 1003.2 1003.1 20.2
21/05:30am 24.5 27.7 24.3 99 0.1 WNW 15 24 8 13 1002.6 1002.5 19.8
21/05:00am 24.1 27.8 23.9 99 0.1 WNW 11 17 6 9 1001.9 1001.8 19.6
21/04:30am 23.6 27.8 23.4 99 0.1 NW 7 9 4 5 1001.6 1001.5 19.6
21/04:00am 23.9 28.2 23.7 99 0.1 NW 7 9 4 5 1001.5 1001.4 19.6
21/03:30am 23.4 27.1 23.2 99 0.1 NNW 9 13 5 7 1001.0 1000.9 19.6
21/03:00am 23.9 28.2 23.7 99 0.1 NNW 7 11 4 6 1001.5 1001.4 19.6
21/02:30am 23.8 28.1 23.6 99 0.1 N 7 9 4 5 1001.6 1001.5 19.6
21/02:00am 23.9 28.4 23.7 99 0.1 NNW 6 7 3 4 1001.6 1001.5 19.6
21/01:30am 23.8 28.1 23.6 99 0.1 NW 7 11 4 6 1001.7 1001.6 19.6
21/01:00am 23.2 27.1 23.0 99 0.1 NNW 7 13 4 7 1001.0 1000.9 19.6
21/12:30am 23.1 26.6 22.9 99 0.1 N 9 13 5 7 1000.7 1000.6 19.6
21/12:00am 22.9 26.7 22.7 99 0.1 N 7 15 4 8 1001.5 1001.4 19.4
 
Date/Time
EDT
Temp
°C
App
Temp
°C
Dew
Point
°C
Rel
Hum
%
Delta-T
°C
Wind Press
QNH
hPa
Press
MSL
hPa
Rain since
9am
mm
Dir  Spd
km/h
Gust
km/h
Spd
kts
Gust
kts
20/11:30pm 23.0 25.7 22.8 99 0.1 N 13 20 7 11 1001.8 1001.7 19.4
20/11:00pm 23.4 27.1 23.2 99 0.1 NNW 9 13 5 7 1002.7 1002.6 19.4
20/10:30pm 23.3 26.5 23.1 99 0.1 NNW 11 15 6 8 1003.0 1002.9 19.0
20/10:00pm 22.9 25.9 22.7 99 0.1 N 11 22 6 12 1002.6 1002.5 18.2
20/09:30pm 22.9 25.9 22.7 99 0.1 N 11 15 6 8 1002.4 1002.3 17.2
20/09:00pm 23.2 26.8 23.0 99 0.1 N 9 17 5 9 1002.6 1002.5 16.2
20/08:30pm 23.7 28.1 23.5 99 0.1 N 6 11 3 6 1002.7 1002.6 14.6
20/08:00pm 23.9 27.0 23.6 98 0.2 W 13 17 7 9 1003.2 1003.1 12.4
20/07:30pm 24.1 26.2 23.8 98 0.2 W 19 28 10 15 1003.3 1003.2 9.6
20/07:00pm 23.7 26.0 23.4 98 0.2 SW 17 30 9 16 1002.7 1002.6 5.0
20/06:32pm 25.3 26.6 22.6 85 1.8 NW 20 52 11 28 1004.5 1004.4 0.0
20/06:30pm 25.3 27.2 22.8 86 1.7 NNW 17 52 9 28 1004.6 1004.5 0.0
20/06:29pm 25.3 28.2 23.9 92 1.0 NNW 15 37 8 20 1004.0 1003.9 0.0
20/06:00pm 25.5 28.4 23.2 87 1.6 N 13 28 7 15 1000.4 1000.3 0.0
20/05:30pm 26.0 28.5 23.1 84 2.0 N 15 26 8 14 1000.5 1000.4 0.0
20/05:00pm 27.2 29.6 23.0 78 2.9 N 15 30 8 16 1000.2 1000.1 0.0
20/04:30pm 27.8 30.2 23.0 75 3.3 N 15 26 8 14 1000.4 1000.3 0.0
20/04:00pm 28.2 30.3 23.1 74 3.5 N 17 32 9 17 1000.9 1000.8 0.0
20/03:30pm 28.7 30.8 23.1 71 3.8 N 17 26 9 14 1001.3 1001.2 0.0
20/03:00pm 28.8 30.8 23.0 71 4.0 N 17 35 9 19 1002.0 1001.9 0.0
20/02:30pm 28.8 31.0 23.2 71 3.8 N 17 26 9 14 1002.8 1002.7 0.0
20/02:00pm 29.0 31.1 23.7 73 3.7 N 19 30 10 16 1003.4 1003.3 0.0
20/01:30pm 28.5 30.2 23.0 72 3.8 N 19 32 10 17 1004.4 1004.3 0.0
20/01:00pm 28.6 30.8 23.3 73 3.6 N 17 30 9 16 1005.1 1005.0 0.0
20/12:30pm 27.9 29.8 22.8 74 3.5 N 17 30 9 16 1005.6 1005.5 0.0
20/12:00pm 26.8 29.1 22.0 75 3.2 N 13 28 7 15 1006.6 1006.5 0.0
20/11:30am 26.7 28.5 21.2 72 3.6 N 13 24 7 13 1007.1 1007.0 0.0
20/11:00am 27.7 30.4 22.2 72 3.7 N 11 17 6 9 1007.5 1007.4 0.0
20/10:30am 26.3 29.4 22.2 78 2.8 N 9 15 5 8 1008.3 1008.2 0.0
20/10:00am 25.4 28.1 21.3 78 2.7 N 9 13 5 7 1008.8 1008.7 0.0
20/09:30am 27.0 29.2 21.1 70 3.9 N 11 17 6 9 1008.7 1008.6 0.0
20/09:00am 27.1 29.9 21.6 72 3.7 N 9 20 5 11 1008.7 1008.6 0.0
20/08:30am 25.9 28.7 21.6 77 2.9 NNW 9 20 5 11 1009.2 1009.1 0.0
20/08:00am 24.2 27.7 22.8 92 0.9 NW 9 11 5 6 1009.0 1008.9 0.0
20/07:30am 23.4 27.4 23.1 98 0.2 NW 7 11 4 6 1009.1 1009.0 0.0
20/07:00am 22.8 26.5 22.5 98 0.2 WNW 7 9 4 5 1008.9 1008.8 0.0
20/06:30am 22.4 25.9 22.1 98 0.2 WSW 7 9 4 5 1009.0 1008.9 0.0
20/06:00am 22.3 25.7 22.0 98 0.2 WSW 7 11 4 6 1008.8 1008.7 0.0
20/05:30am 22.2 25.5 21.9 98 0.2 SW 7 11 4 6 1008.4 1008.3 0.0
20/05:00am 22.3 25.7 22.0 98 0.2 WSW 7 11 4 6 1008.5 1008.4 0.0
20/04:30am 22.5 25.6 22.2 98 0.2 NNE 9 9 5 5 1008.5 1008.4 0.0
20/04:00am 22.6 26.0 21.6 94 0.7 NNE 6 7 3 4 1008.6 1008.5 0.0
20/03:30am 22.6 26.9 21.1 91 1.0 CALM 0 0 0 0 1009.0 1008.9 0.0
20/03:00am 22.3 26.5 20.9 92 0.9 CALM 0 0 0 0 1009.3 1009.2 0.0
20/02:30am 22.8 27.2 21.3 91 1.0 CALM 0 0 0 0 1009.7 1009.6 0.0
20/02:00am 23.2 26.7 21.8 92 0.9 NNE 6 7 3 4 1010.3 1010.2 0.0
20/01:30am 23.0 26.1 21.1 89 1.2 NNE 6 7 3 4 1010.7 1010.6 0.0
20/01:00am 23.1 26.3 21.2 89 1.2 NE 6 6 3 3 1010.9 1010.8 0.0
20/12:30am 23.4 26.9 21.1 87 1.5 NE 4 7 2 4 1011.3 1011.2 0.0
20/12:00am 23.6 26.0 20.9 85 1.8 ENE 9 13 5 7 1011.5 1011.4 0.0
 
Date/Time
EDT
Temp
°C
App
Temp
°C
Dew
Point
°C
Rel
Hum
%
Delta-T
°C
Wind Press
QNH
hPa
Press
MSL
hPa
Rain since
9am
mm
Dir  Spd
km/h
Gust
km/h
Spd
kts
Gust
kts
19/11:30pm 23.6 26.0 20.9 85 1.8 ENE 9 15 5 8 1011.6 1011.5 0.0
19/11:00pm 23.5 26.0 21.0 86 1.6 E 9 13 5 7 1011.8 1011.7 0.0
19/10:30pm 23.5 25.9 20.8 85 1.8 E 9 13 5 7 1012.0 1011.9 0.0
19/10:00pm 23.3 25.9 21.2 88 1.4 E 9 15 5 8 1011.9 1011.8 0.0
19/09:30pm 23.2 26.0 21.5 90 1.1 E 9 15 5 8 1011.6 1011.5 0.0
19/09:00pm 22.8 25.0 21.8 94 0.7 ESE 13 17 7 9 1011.5 1011.4 0.0
19/08:30pm 22.9 25.4 21.7 93 0.8 ESE 11 13 6 7 1011.7 1011.6 0.0
19/08:00pm 23.3 26.0 21.4 89 1.3 ESE 9 13 5 7 1011.6 1011.5 0.0
19/07:30pm 23.5 25.9 21.6 89 1.3 S 11 15 6 8 1011.0 1010.9 0.0

Other Formats:

Comma delimited format used in spreadsheet applications
http://www.bom.gov.au/fwo/IDN60801/IDN60801.94589.axf

JavaScript Object Notation format (JSON) in row-major order
http://www.bom.gov.au/fwo/IDN60801/IDN60801.94589.json